createdAt,value
2018-07-14T00:02:24.489Z,6.30
2018-07-14T00:04:59.277Z,6.25
2018-07-14T00:07:34.004Z,6.35
2018-07-14T00:10:08.866Z,6.67
2018-07-14T00:12:43.805Z,6.30
2018-07-14T00:15:19.133Z,6.90
2018-07-14T00:17:53.856Z,6.50
2018-07-14T00:20:29.628Z,6.40
2018-07-14T00:23:04.212Z,6.25
2018-07-14T00:25:44.072Z,6.15
2018-07-14T00:28:18.816Z,6.25
2018-07-14T00:30:53.636Z,7.15
2018-07-14T00:33:28.290Z,7.05
2018-07-14T00:36:03.048Z,7.28
2018-07-14T00:38:37.733Z,7.17
2018-07-14T00:41:12.500Z,7.05
2018-07-14T00:43:47.218Z,7.17
2018-07-14T00:46:22.343Z,6.65
2018-07-14T00:48:57.082Z,6.62
2018-07-14T00:51:31.837Z,6.80
2018-07-14T00:54:06.623Z,6.47
2018-07-14T00:56:41.379Z,6.25
2018-07-14T00:59:16.275Z,6.65
2018-07-14T01:01:51.037Z,6.47
2018-07-14T01:04:25.954Z,6.50
2018-07-14T01:07:01.737Z,6.17
2018-07-14T01:09:36.485Z,5.70
2018-07-14T01:12:10.796Z,6.10
2018-07-14T01:14:46.067Z,6.15
2018-07-14T01:17:20.808Z,6.00
2018-07-14T01:19:55.757Z,5.97
2018-07-14T01:22:30.496Z,5.72
2018-07-14T01:25:05.262Z,5.58
2018-07-14T01:27:40.065Z,5.85
2018-07-14T01:30:14.784Z,6.30
2018-07-14T01:32:49.530Z,5.97
2018-07-14T01:35:23.771Z,5.62
2018-07-14T01:37:58.496Z,5.60
2018-07-14T01:40:33.571Z,5.85
2018-07-14T01:43:09.321Z,5.60
2018-07-14T01:45:44.021Z,5.67
2018-07-14T01:48:18.778Z,6.15
2018-07-14T01:50:53.476Z,6.03
2018-07-14T01:53:28.244Z,5.78
2018-07-14T01:56:02.965Z,5.72
2018-07-14T01:58:37.699Z,5.75
2018-07-14T02:01:13.457Z,5.75
2018-07-14T02:03:47.755Z,5.67
2018-07-14T02:06:22.456Z,6.62
2018-07-14T02:08:57.228Z,6.37
2018-07-14T02:11:31.507Z,5.72
2018-07-14T02:14:06.247Z,5.83
2018-07-14T02:16:41.993Z,5.30
2018-07-14T02:19:16.786Z,5.58
2018-07-14T02:21:51.605Z,5.70
2018-07-14T02:24:26.301Z,5.33
2018-07-14T02:27:01.076Z,4.87
2018-07-14T02:29:36.002Z,5.00
2018-07-14T02:32:10.775Z,5.10
2018-07-14T02:34:45.484Z,5.28
2018-07-14T02:37:21.238Z,5.10
2018-07-14T02:39:55.965Z,4.50
2018-07-14T02:42:30.771Z,5.65
2018-07-14T02:45:07.204Z,5.20
2018-07-14T02:47:42.948Z,5.62
2018-07-14T02:50:17.712Z,5.08
2018-07-14T02:52:52.461Z,4.65
2018-07-14T02:55:27.220Z,4.60
2018-07-14T02:58:01.935Z,4.87
2018-07-14T03:00:36.738Z,4.62
2018-07-14T03:03:11.518Z,4.60
2018-07-14T03:05:46.271Z,4.30
2018-07-14T03:08:21.005Z,4.60
2018-07-14T03:10:55.753Z,4.28
2018-07-14T03:13:30.549Z,4.00
2018-07-14T03:16:05.398Z,4.20
2018-07-14T03:18:40.108Z,4.08
2018-07-14T03:21:14.869Z,4.67
2018-07-14T03:23:49.103Z,4.95
2018-07-14T03:26:23.330Z,4.53
2018-07-14T03:28:58.071Z,4.37
2018-07-14T03:31:32.837Z,5.10
2018-07-14T03:34:07.562Z,4.45
2018-07-14T03:36:42.355Z,4.62
2018-07-14T03:39:17.231Z,3.98
2018-07-14T03:41:51.503Z,4.20
2018-07-14T03:44:27.483Z,3.83
2018-07-14T03:47:03.285Z,3.60
2018-07-14T03:49:38.102Z,3.90
2018-07-14T03:52:13.958Z,3.55
2018-07-14T03:54:48.700Z,3.70
2018-07-14T03:57:24.489Z,3.10
2018-07-14T03:59:59.212Z,3.62
2018-07-14T04:02:34.024Z,3.47
2018-07-14T04:05:08.780Z,3.52
2018-07-14T04:07:43.550Z,3.52
2018-07-14T04:10:18.273Z,3.75
2018-07-14T04:12:53.012Z,3.65
2018-07-14T04:15:27.752Z,3.45
2018-07-14T04:18:05.551Z,3.50
2018-07-14T04:20:40.285Z,3.33
2018-07-14T04:23:14.985Z,3.02
2018-07-14T04:25:50.709Z,2.80
2018-07-14T04:28:26.550Z,2.95
2018-07-14T04:31:00.800Z,2.62
2018-07-14T04:33:35.556Z,2.92
2018-07-14T04:36:10.297Z,2.47
2018-07-14T04:38:46.080Z,2.50
2018-07-14T04:41:20.802Z,2.40
2018-07-14T04:43:55.558Z,2.17
2018-07-14T04:46:30.287Z,2.35
2018-07-14T04:49:06.122Z,2.25
2018-07-14T04:51:40.822Z,1.75
2018-07-14T04:54:15.599Z,2.10
2018-07-14T04:56:50.330Z,2.37
2018-07-14T04:59:25.097Z,2.00
2018-07-14T05:01:59.855Z,1.80
2018-07-14T05:04:34.629Z,2.20
2018-07-14T05:07:09.349Z,2.10
2018-07-14T05:09:44.176Z,2.00
2018-07-14T05:12:18.894Z,2.22
2018-07-14T05:14:53.693Z,1.80
2018-07-14T05:17:28.476Z,13.08
2018-07-14T05:20:03.248Z,2.10
2018-07-14T05:22:37.978Z,2.05
2018-07-14T05:25:13.756Z,1.98
2018-07-14T05:27:49.487Z,2.17
2018-07-14T05:30:25.303Z,2.15
2018-07-14T05:33:00.039Z,2.20
2018-07-14T05:35:35.208Z,2.12
2018-07-14T05:38:09.932Z,2.17
2018-07-14T05:40:44.708Z,1.92
2018-07-14T05:43:18.926Z,2.10
2018-07-14T05:45:54.251Z,1.52
2018-07-14T05:48:29.004Z,1.42
2018-07-14T05:51:03.808Z,1.60
2018-07-14T05:53:38.595Z,1.35
2018-07-14T05:56:13.360Z,1.60
2018-07-14T05:58:48.131Z,1.40
2018-07-14T06:01:23.922Z,1.30
2018-07-14T06:03:59.709Z,1.30
2018-07-14T06:06:34.489Z,1.30
2018-07-14T06:09:09.230Z,1.25
2018-07-14T06:11:43.976Z,0.88
2018-07-14T06:14:18.228Z,1.10
2018-07-14T06:16:53.165Z,0.90
2018-07-14T06:19:27.898Z,0.90
2018-07-14T06:22:03.916Z,0.75
2018-07-14T06:24:39.151Z,1.00
2018-07-14T06:27:13.404Z,0.80
2018-07-14T06:29:49.160Z,0.85
2018-07-14T06:32:23.986Z,1.00
2018-07-14T06:34:58.680Z,0.70
2018-07-14T06:37:33.440Z,1.27
2018-07-14T06:40:08.194Z,0.80
2018-07-14T06:42:42.996Z,1.00
2018-07-14T06:45:17.780Z,0.70
2018-07-14T06:47:52.102Z,0.70
2018-07-14T06:50:26.816Z,0.57
2018-07-14T06:53:02.663Z,0.98
2018-07-14T06:55:38.417Z,0.82
2018-07-14T06:58:13.201Z,0.90
2018-07-14T07:00:47.885Z,0.90
2018-07-14T07:03:23.703Z,1.30
2018-07-14T07:05:58.766Z,1.25
2018-07-14T07:08:33.028Z,0.85
2018-07-14T07:11:07.787Z,0.90
2018-07-14T07:13:42.581Z,1.00
2018-07-14T07:16:18.560Z,1.20
2018-07-14T07:18:53.322Z,1.00
2018-07-14T07:21:28.128Z,0.90
2018-07-14T07:24:02.554Z,0.82
2018-07-14T07:26:36.796Z,1.10
2018-07-14T07:29:11.605Z,0.90
2018-07-14T07:31:46.346Z,1.25
2018-07-14T07:34:21.114Z,0.80
2018-07-14T07:36:55.892Z,0.80
2018-07-14T07:39:30.860Z,0.78
2018-07-14T07:42:05.627Z,0.70
2018-07-14T07:44:39.931Z,0.78
2018-07-14T07:47:14.720Z,0.68
2018-07-14T07:49:49.474Z,0.65
2018-07-14T07:52:24.169Z,0.80
2018-07-14T07:54:58.955Z,0.70
2018-07-14T07:57:33.210Z,0.70
2018-07-14T08:00:09.086Z,0.80
2018-07-14T08:02:43.816Z,0.60
2018-07-14T08:05:18.608Z,0.60
2018-07-14T08:07:53.976Z,0.70
2018-07-14T08:10:29.772Z,0.40
2018-07-14T08:13:04.497Z,0.60
2018-07-14T08:15:39.269Z,0.40
2018-07-14T08:18:13.982Z,0.68
2018-07-14T08:20:48.731Z,0.50
2018-07-14T08:23:23.428Z,0.40
2018-07-14T08:25:58.205Z,0.55
2018-07-14T08:28:32.893Z,0.50
2018-07-14T08:31:07.708Z,0.70
2018-07-14T08:33:43.479Z,0.60
2018-07-14T08:36:18.256Z,0.40
2018-07-14T08:38:52.519Z,0.50
2018-07-14T08:41:27.267Z,0.47
2018-07-14T08:44:02.125Z,0.30
2018-07-14T08:46:37.391Z,0.40
2018-07-14T08:49:12.232Z,0.30
2018-07-14T08:51:46.973Z,0.40
2018-07-14T08:54:21.661Z,0.30
2018-07-14T08:56:56.453Z,0.40
2018-07-14T08:59:31.165Z,0.35
2018-07-14T09:02:05.942Z,0.40
2018-07-14T09:04:40.673Z,0.30
2018-07-14T09:07:15.509Z,0.50
2018-07-14T09:09:51.253Z,0.30
2018-07-14T09:12:26.015Z,0.40
2018-07-14T09:15:01.515Z,0.50
2018-07-14T09:17:35.797Z,0.40
2018-07-14T09:20:10.080Z,0.40
2018-07-14T09:22:44.842Z,0.50
2018-07-14T09:25:19.913Z,0.57
2018-07-14T09:27:54.662Z,0.40
2018-07-14T09:30:30.453Z,0.80
2018-07-14T09:33:05.264Z,0.50
2018-07-14T09:35:40.047Z,0.70
2018-07-14T09:38:14.839Z,0.65
2018-07-14T09:40:49.561Z,0.60
2018-07-14T09:43:24.376Z,0.53
2018-07-14T09:45:59.770Z,0.78
2018-07-14T09:48:34.562Z,0.60
2018-07-14T09:51:10.280Z,0.53
2018-07-14T09:53:45.061Z,0.60
2018-07-14T09:56:19.812Z,0.60
2018-07-14T09:58:54.585Z,0.50
2018-07-14T10:01:29.326Z,0.55
2018-07-14T10:04:04.163Z,0.40
2018-07-14T10:06:39.028Z,0.30
2018-07-14T10:09:13.809Z,0.60
2018-07-14T10:11:48.512Z,0.45
2018-07-14T10:14:24.300Z,0.40
2018-07-14T10:16:59.076Z,0.20
2018-07-14T10:19:34.791Z,0.30
2018-07-14T10:22:09.531Z,0.30
2018-07-14T10:24:44.316Z,0.20
2018-07-14T10:27:18.988Z,0.40
2018-07-14T10:29:53.799Z,0.28
2018-07-14T10:32:28.568Z,0.40
2018-07-14T10:35:03.338Z,0.20
2018-07-14T10:37:38.112Z,0.20
2018-07-14T10:40:12.891Z,0.40
2018-07-14T10:42:47.718Z,0.20
2018-07-14T10:45:22.452Z,0.25
2018-07-14T10:47:57.177Z,0.20
2018-07-14T10:50:32.964Z,0.30
2018-07-14T10:53:07.680Z,0.25
2018-07-14T10:55:42.478Z,0.15
2018-07-14T10:58:17.264Z,0.30
2018-07-14T11:00:51.672Z,0.23
2018-07-14T11:03:27.448Z,0.30
2018-07-14T11:06:02.257Z,0.30
2018-07-14T11:08:36.965Z,0.20
2018-07-14T11:11:12.949Z,0.50
2018-07-14T11:13:47.663Z,0.40
2018-07-14T11:16:22.448Z,0.20
2018-07-14T11:18:58.205Z,0.45
2018-07-14T11:21:32.965Z,0.37
2018-07-14T11:24:07.701Z,0.40
2018-07-14T11:26:42.475Z,0.30
2018-07-14T11:29:17.191Z,0.20
2018-07-14T11:31:51.999Z,0.28
2018-07-14T11:34:26.760Z,0.30
2018-07-14T11:37:01.503Z,0.30
2018-07-14T11:39:39.965Z,0.30
2018-07-14T11:42:25.831Z,0.35
2018-07-14T11:45:11.167Z,0.40
2018-07-14T11:47:46.797Z,0.65
2018-07-14T11:50:21.672Z,0.30
2018-07-14T11:53:04.124Z,0.40
2018-07-14T11:55:53.827Z,0.30
2018-07-14T11:58:29.740Z,0.37
2018-07-14T12:01:07.180Z,0.30
2018-07-14T12:03:45.570Z,0.40
2018-07-14T12:06:23.781Z,0.30
2018-07-14T12:09:05.951Z,0.20
2018-07-14T12:11:43.637Z,0.20
2018-07-14T12:14:27.342Z,0.40
2018-07-14T12:17:06.100Z,0.30
2018-07-14T12:19:47.505Z,0.50
2018-07-14T12:22:26.922Z,0.35
2018-07-14T12:25:04.042Z,0.40
2018-07-14T12:27:43.084Z,0.20
2018-07-14T12:30:22.932Z,0.30
2018-07-14T12:33:03.745Z,0.20
2018-07-14T12:35:47.767Z,0.10
2018-07-14T12:38:32.281Z,0.10
2018-07-14T12:41:13.596Z,0.20
2018-07-14T12:47:00.109Z,0.20
2018-07-14T12:50:12.553Z,0.30
2018-07-14T12:57:35.449Z,0.20
2018-07-14T13:00:17.398Z,0.20
2018-07-14T13:03:03.081Z,0.40
2018-07-14T13:05:44.922Z,0.20
2018-07-14T13:08:39.140Z,0.20
2018-07-14T13:11:41.136Z,0.20
2018-07-14T13:14:40.205Z,0.20
2018-07-14T13:17:20.490Z,0.20
2018-07-14T13:20:04.315Z,0.30
2018-07-14T13:22:51.963Z,0.30
2018-07-14T13:25:28.670Z,0.20
2018-07-14T13:28:04.284Z,0.37
2018-07-14T13:30:39.056Z,0.20
2018-07-14T13:33:19.914Z,0.23
2018-07-14T13:36:10.843Z,0.20
2018-07-14T13:38:51.736Z,0.30
2018-07-14T13:41:25.873Z,0.20
2018-07-14T13:44:00.772Z,0.20
2018-07-14T13:46:47.829Z,0.15
2018-07-14T13:49:31.126Z,4.40
2018-07-14T13:52:11.216Z,0.30
2018-07-14T13:54:46.101Z,0.20
2018-07-14T13:57:20.888Z,0.20
2018-07-14T13:59:56.649Z,0.20
2018-07-14T14:02:31.364Z,0.20
2018-07-14T14:05:06.473Z,0.20
2018-07-14T14:07:41.239Z,0.25
2018-07-14T14:10:16.955Z,0.20
2018-07-14T14:12:51.190Z,0.20
2018-07-14T14:15:25.974Z,0.20
2018-07-14T14:18:00.737Z,0.20
2018-07-14T14:20:35.569Z,0.30
2018-07-14T14:23:10.604Z,0.20
2018-07-14T14:25:45.407Z,0.10
2018-07-14T14:28:20.117Z,0.37
2018-07-14T14:30:54.887Z,0.20
2018-07-14T14:33:29.694Z,0.20
2018-07-14T14:36:04.476Z,0.20
2018-07-14T14:38:39.187Z,0.30
2018-07-14T14:41:13.976Z,0.33
2018-07-14T14:43:48.677Z,0.30
2018-07-14T14:46:23.478Z,0.20
2018-07-14T14:48:58.209Z,0.30
2018-07-14T14:51:32.965Z,0.30
2018-07-14T14:54:07.792Z,0.20
2018-07-14T14:56:43.535Z,0.30
2018-07-14T14:59:18.252Z,0.20
2018-07-14T15:01:53.177Z,0.20
2018-07-14T15:04:28.925Z,0.40
2018-07-14T15:07:03.695Z,0.30
2018-07-14T15:09:38.432Z,0.30
2018-07-14T15:12:13.222Z,0.25
2018-07-14T15:14:47.987Z,0.23
2018-07-14T15:17:22.716Z,0.30
2018-07-14T15:19:57.441Z,0.20
2018-07-14T15:22:32.280Z,0.20
2018-07-14T15:25:07.442Z,0.30
2018-07-14T15:27:42.278Z,0.28
2018-07-14T15:30:16.989Z,0.20
2018-07-14T15:32:51.864Z,0.30
2018-07-14T15:35:26.689Z,0.20
2018-07-14T15:38:00.939Z,0.57
2018-07-14T15:40:35.721Z,0.20
2018-07-14T15:43:10.485Z,0.20
2018-07-14T15:45:45.190Z,0.28
2018-07-14T15:48:20.474Z,0.35
2018-07-14T15:50:55.181Z,0.20
2018-07-14T15:53:29.929Z,0.30
2018-07-14T15:56:06.191Z,0.20
2018-07-14T15:58:40.924Z,0.25
2018-07-14T16:01:16.705Z,0.30
2018-07-14T16:03:51.515Z,0.37
2018-07-14T16:06:26.222Z,0.30
2018-07-14T16:09:00.981Z,0.20
2018-07-14T16:11:36.124Z,0.30
2018-07-14T16:14:11.910Z,0.30
2018-07-14T16:16:46.688Z,0.20
2018-07-14T16:19:21.406Z,0.23
2018-07-14T16:21:57.391Z,0.30
2018-07-14T16:24:32.176Z,0.28
2018-07-14T16:27:06.942Z,0.30
2018-07-14T16:29:41.744Z,0.40
2018-07-14T16:32:16.466Z,0.40
2018-07-14T16:34:52.247Z,0.40
2018-07-14T16:37:26.471Z,0.40
2018-07-14T16:40:01.257Z,0.30
2018-07-14T16:42:36.040Z,0.47
2018-07-14T16:45:10.856Z,0.20
2018-07-14T16:47:46.585Z,0.30
2018-07-14T16:50:21.395Z,0.28
2018-07-14T16:52:57.234Z,0.40
2018-07-14T16:55:32.074Z,0.30
2018-07-14T16:58:06.797Z,0.57
2018-07-14T17:00:42.602Z,0.30
2018-07-14T17:03:37.335Z,0.30
2018-07-14T17:06:35.657Z,0.40
2018-07-14T17:12:51.363Z,0.53
2018-07-14T17:15:53.735Z,0.60
2018-07-14T17:30:35.647Z,0.50
2018-07-14T17:33:37.534Z,0.53
2018-07-14T17:43:07.199Z,0.50
2018-07-14T17:48:40.037Z,0.30
2018-07-14T17:51:15.042Z,0.30
2018-07-14T17:53:49.273Z,0.40
2018-07-14T17:56:24.058Z,0.30
2018-07-14T17:58:59.869Z,0.30
2018-07-14T18:01:34.689Z,0.35
2018-07-14T18:04:09.491Z,2.92
2018-07-14T18:06:49.526Z,0.60
2018-07-14T18:09:26.145Z,0.40
2018-07-14T18:12:01.893Z,0.30
2018-07-14T18:14:36.715Z,0.40
2018-07-14T18:17:11.678Z,0.60
2018-07-14T18:19:46.405Z,0.40
2018-07-14T18:22:21.143Z,0.40
2018-07-14T18:24:55.859Z,0.40
2018-07-14T18:27:30.596Z,0.40
2018-07-14T18:30:06.472Z,0.40
2018-07-14T18:32:41.237Z,0.40
2018-07-14T18:35:16.031Z,0.40
2018-07-14T18:37:50.299Z,0.50
2018-07-14T18:40:25.100Z,0.30
2018-07-14T18:42:59.812Z,0.60
2018-07-14T18:45:34.564Z,0.40
2018-07-14T18:48:09.256Z,0.47
2018-07-14T18:50:43.985Z,0.40
2018-07-14T18:53:27.520Z,0.40
2018-07-14T18:56:01.884Z,0.60
2018-07-14T18:58:49.869Z,0.40
2018-07-14T19:01:24.724Z,0.40
2018-07-14T19:04:19.280Z,0.78
2018-07-14T19:06:54.102Z,0.37
2018-07-14T19:09:28.295Z,0.60
2018-07-14T19:12:03.044Z,0.70
2018-07-14T19:14:37.328Z,0.50
2018-07-14T19:17:12.095Z,0.55
2018-07-14T19:19:46.825Z,0.70
2018-07-14T19:22:21.634Z,0.60
2018-07-14T19:24:56.386Z,0.65
2018-07-14T19:27:32.186Z,1.00
2018-07-14T19:30:10.000Z,0.80
2018-07-14T19:32:44.904Z,1.00
2018-07-14T19:35:20.697Z,0.60
2018-07-14T19:37:56.112Z,0.70
2018-07-14T19:40:33.132Z,1.27
2018-07-14T19:43:11.461Z,0.70
2018-07-14T19:45:53.585Z,0.60
2018-07-14T19:48:31.945Z,1.00
2018-07-14T19:51:09.146Z,0.82
2018-07-14T19:53:44.164Z,0.70
2018-07-14T19:56:18.988Z,1.05
2018-07-14T19:58:53.943Z,1.40
2018-07-14T20:01:29.761Z,1.15
2018-07-14T20:04:05.117Z,0.93
2018-07-14T20:06:39.896Z,0.85
2018-07-14T20:09:14.804Z,1.10
2018-07-14T20:11:49.569Z,0.90
2018-07-14T20:14:24.284Z,1.07
2018-07-14T20:16:59.045Z,1.00
2018-07-14T20:19:33.304Z,0.95
2018-07-14T20:28:40.678Z,1.05
2018-07-14T20:31:28.879Z,1.27
2018-07-14T20:34:15.063Z,1.10
2018-07-14T20:36:49.932Z,1.55
2018-07-14T20:39:24.708Z,1.42
2018-07-14T20:41:59.977Z,1.22
2018-07-14T20:44:34.694Z,1.90
2018-07-14T20:47:09.409Z,2.05
2018-07-14T20:49:43.070Z,2.97
2018-07-14T20:52:17.337Z,3.60
2018-07-14T20:54:52.286Z,2.80
2018-07-14T20:57:27.491Z,3.30
2018-07-14T21:00:02.254Z,3.00
2018-07-14T21:02:36.487Z,3.02
2018-07-14T21:05:10.741Z,3.22
2018-07-14T21:07:45.565Z,3.22
2018-07-14T21:10:20.773Z,2.87
2018-07-14T21:12:56.574Z,3.33
2018-07-14T21:15:30.749Z,3.33
2018-07-14T21:18:06.691Z,3.42
2018-07-14T21:20:40.918Z,2.85
2018-07-14T21:23:15.817Z,3.10
2018-07-14T21:25:50.583Z,2.83
2018-07-14T21:28:25.349Z,2.33
2018-07-14T21:31:00.564Z,2.63
2018-07-14T21:33:35.323Z,2.77
2018-07-14T21:36:10.142Z,2.45
2018-07-14T21:38:44.901Z,2.42
2018-07-14T21:41:19.167Z,3.25
2018-07-14T21:43:53.629Z,2.50
2018-07-14T21:46:28.405Z,3.17
2018-07-14T21:49:02.592Z,4.17
2018-07-14T21:51:36.820Z,4.15
2018-07-14T21:54:11.579Z,3.27
2018-07-14T21:56:47.638Z,3.87
2018-07-14T21:59:22.404Z,3.45
2018-07-14T22:01:59.045Z,3.07
2018-07-14T22:04:34.782Z,3.05
2018-07-14T22:07:10.577Z,2.95
2018-07-14T22:09:45.830Z,3.00
2018-07-14T22:12:21.028Z,3.20
2018-07-14T22:14:56.782Z,3.40
2018-07-14T22:17:33.481Z,3.17
2018-07-14T22:20:08.877Z,3.10
2018-07-14T22:23:01.703Z,3.30
2018-07-14T22:25:42.953Z,2.87
2018-07-14T22:28:21.804Z,3.03
2018-07-14T22:30:55.480Z,2.80
2018-07-14T22:33:29.729Z,3.10
2018-07-14T22:36:07.347Z,3.30
2018-07-14T22:38:46.053Z,3.00
2018-07-14T22:41:25.424Z,3.20
2018-07-14T22:44:03.268Z,3.20
2018-07-14T22:49:36.716Z,3.60
2018-07-14T22:52:20.461Z,3.23
2018-07-14T22:54:54.684Z,3.13
2018-07-14T22:57:28.929Z,3.27
2018-07-14T23:00:03.120Z,3.30
2018-07-14T23:02:37.366Z,3.60
2018-07-14T23:05:11.548Z,3.53
2018-07-14T23:07:45.776Z,2.97
2018-07-14T23:10:19.973Z,3.37
2018-07-14T23:12:55.199Z,3.10
2018-07-14T23:15:30.435Z,3.80
2018-07-14T23:18:04.655Z,3.80
2018-07-14T23:20:38.856Z,3.50
2018-07-14T23:23:13.119Z,3.77
2018-07-14T23:25:48.313Z,3.43
2018-07-14T23:28:22.532Z,3.60
2018-07-14T23:30:58.409Z,3.40
2018-07-14T23:33:33.861Z,4.20
2018-07-14T23:36:08.262Z,3.40
2018-07-14T23:38:43.526Z,3.53
2018-07-14T23:41:18.728Z,3.10
2018-07-14T23:43:53.923Z,3.40
2018-07-14T23:46:28.075Z,4.17
2018-07-14T23:49:02.317Z,3.63
2018-07-14T23:51:36.477Z,3.93
2018-07-14T23:54:11.717Z,4.30
2018-07-14T23:56:45.928Z,4.20
2018-07-14T23:59:20.168Z,4.70
